sensor_id;sensor_type;location;lat;lon;timestamp;P1;durP1;ratioP1;P2;durP2;ratioP2
12114;SDS011;6121;49.810;6.418;2023-08-21T00:00:09;10.17;;;4.30;;
12114;SDS011;6121;49.810;6.418;2023-08-21T00:02:36;13.38;;;5.70;;
12114;SDS011;6121;49.810;6.418;2023-08-21T00:05:02;13.00;;;5.38;;
12114;SDS011;6121;49.810;6.418;2023-08-21T00:07:28;16.70;;;6.80;;
12114;SDS011;6121;49.810;6.418;2023-08-21T00:09:54;12.73;;;5.13;;
12114;SDS011;6121;49.810;6.418;2023-08-21T00:12:20;14.82;;;6.13;;
12114;SDS011;6121;49.810;6.418;2023-08-21T00:14:45;11.73;;;5.00;;
12114;SDS011;6121;49.810;6.418;2023-08-21T00:17:11;14.50;;;5.88;;
12114;SDS011;6121;49.810;6.418;2023-08-21T00:19:37;13.53;;;5.73;;
12114;SDS011;6121;49.810;6.418;2023-08-21T00:22:03;11.90;;;4.93;;
12114;SDS011;6121;49.810;6.418;2023-08-21T00:24:29;15.15;;;6.25;;
12114;SDS011;6121;49.810;6.418;2023-08-21T00:26:55;12.93;;;5.47;;
12114;SDS011;6121;49.810;6.418;2023-08-21T00:29:20;13.00;;;5.40;;
12114;SDS011;6121;49.810;6.418;2023-08-21T00:31:46;11.63;;;4.95;;
12114;SDS011;6121;49.810;6.418;2023-08-21T00:34:12;12.63;;;5.43;;
12114;SDS011;6121;49.810;6.418;2023-08-21T00:36:38;17.47;;;7.00;;
12114;SDS011;6121;49.810;6.418;2023-08-21T00:39:03;14.23;;;5.75;;
12114;SDS011;6121;49.810;6.418;2023-08-21T00:41:29;14.00;;;5.80;;
12114;SDS011;6121;49.810;6.418;2023-08-21T00:43:56;11.63;;;4.82;;
12114;SDS011;6121;49.810;6.418;2023-08-21T00:46:22;14.77;;;6.03;;
12114;SDS011;6121;49.810;6.418;2023-08-21T00:48:47;12.00;;;5.00;;
12114;SDS011;6121;49.810;6.418;2023-08-21T00:51:14;12.35;;;5.25;;
12114;SDS011;6121;49.810;6.418;2023-08-21T00:53:41;16.52;;;6.53;;
12114;SDS011;6121;49.810;6.418;2023-08-21T00:56:08;11.32;;;4.60;;
12114;SDS011;6121;49.810;6.418;2023-08-21T00:58:34;16.15;;;6.47;;
12114;SDS011;6121;49.810;6.418;2023-08-21T01:01:00;11.88;;;4.80;;
12114;SDS011;6121;49.810;6.418;2023-08-21T01:03:26;13.73;;;5.60;;
12114;SDS011;6121;49.810;6.418;2023-08-21T01:05:52;12.18;;;5.03;;
12114;SDS011;6121;49.810;6.418;2023-08-21T01:11:13;11.70;;;4.88;;
12114;SDS011;6121;49.810;6.418;2023-08-21T01:13:48;13.50;;;5.57;;
12114;SDS011;6121;49.810;6.418;2023-08-21T01:16:33;15.95;;;6.47;;
12114;SDS011;6121;49.810;6.418;2023-08-21T01:19:01;14.30;;;5.72;;
12114;SDS011;6121;49.810;6.418;2023-08-21T01:21:28;13.80;;;5.75;;
12114;SDS011;6121;49.810;6.418;2023-08-21T01:23:55;13.03;;;5.57;;
12114;SDS011;6121;49.810;6.418;2023-08-21T01:26:20;13.80;;;5.47;;
12114;SDS011;6121;49.810;6.418;2023-08-21T01:28:46;15.93;;;6.45;;
12114;SDS011;6121;49.810;6.418;2023-08-21T01:31:16;14.10;;;5.77;;
12114;SDS011;6121;49.810;6.418;2023-08-21T01:33:57;13.88;;;5.70;;
12114;SDS011;6121;49.810;6.418;2023-08-21T01:36:26;14.02;;;5.68;;
12114;SDS011;6121;49.810;6.418;2023-08-21T01:38:53;16.80;;;6.70;;
12114;SDS011;6121;49.810;6.418;2023-08-21T01:41:23;11.23;;;4.70;;
12114;SDS011;6121;49.810;6.418;2023-08-21T01:43:50;14.13;;;5.68;;
12114;SDS011;6121;49.810;6.418;2023-08-21T01:46:15;14.15;;;5.72;;
12114;SDS011;6121;49.810;6.418;2023-08-21T01:48:41;15.18;;;6.32;;
12114;SDS011;6121;49.810;6.418;2023-08-21T01:51:07;9.70;;;4.13;;
12114;SDS011;6121;49.810;6.418;2023-08-21T01:53:33;14.32;;;5.90;;
12114;SDS011;6121;49.810;6.418;2023-08-21T01:56:00;13.55;;;5.70;;
12114;SDS011;6121;49.810;6.418;2023-08-21T01:58:26;13.63;;;5.53;;
12114;SDS011;6121;49.810;6.418;2023-08-21T02:00:51;12.43;;;5.10;;
12114;SDS011;6121;49.810;6.418;2023-08-21T02:03:17;13.02;;;5.38;;
12114;SDS011;6121;49.810;6.418;2023-08-21T02:05:43;14.47;;;6.10;;
12114;SDS011;6121;49.810;6.418;2023-08-21T02:08:11;12.00;;;4.90;;
12114;SDS011;6121;49.810;6.418;2023-08-21T02:10:46;15.80;;;6.47;;
12114;SDS011;6121;49.810;6.418;2023-08-21T02:13:16;13.30;;;5.45;;
12114;SDS011;6121;49.810;6.418;2023-08-21T02:15:43;13.95;;;5.80;;
12114;SDS011;6121;49.810;6.418;2023-08-21T02:18:09;10.85;;;4.45;;
12114;SDS011;6121;49.810;6.418;2023-08-21T02:20:34;11.90;;;4.83;;
12114;SDS011;6121;49.810;6.418;2023-08-21T02:23:00;15.52;;;6.22;;
12114;SDS011;6121;49.810;6.418;2023-08-21T02:25:26;15.25;;;6.20;;
12114;SDS011;6121;49.810;6.418;2023-08-21T02:27:53;13.70;;;5.60;;
12114;SDS011;6121;49.810;6.418;2023-08-21T02:30:18;12.20;;;4.83;;
12114;SDS011;6121;49.810;6.418;2023-08-21T02:32:45;15.48;;;6.38;;
12114;SDS011;6121;49.810;6.418;2023-08-21T02:35:12;11.68;;;4.80;;
12114;SDS011;6121;49.810;6.418;2023-08-21T02:37:38;13.52;;;5.55;;
12114;SDS011;6121;49.810;6.418;2023-08-21T02:40:05;12.30;;;5.18;;
12114;SDS011;6121;49.810;6.418;2023-08-21T02:42:33;14.43;;;5.97;;
12114;SDS011;6121;49.810;6.418;2023-08-21T02:44:59;12.85;;;5.43;;
12114;SDS011;6121;49.810;6.418;2023-08-21T02:47:29;15.45;;;6.35;;
12114;SDS011;6121;49.810;6.418;2023-08-21T02:49:55;15.85;;;6.10;;
12114;SDS011;6121;49.810;6.418;2023-08-21T02:52:21;14.02;;;5.65;;
12114;SDS011;6121;49.810;6.418;2023-08-21T02:54:48;15.55;;;6.30;;
12114;SDS011;6121;49.810;6.418;2023-08-21T02:57:14;15.00;;;5.87;;
12114;SDS011;6121;49.810;6.418;2023-08-21T02:59:39;11.70;;;4.85;;
12114;SDS011;6121;49.810;6.418;2023-08-21T03:02:05;13.45;;;5.47;;
12114;SDS011;6121;49.810;6.418;2023-08-21T03:04:31;13.00;;;5.27;;
12114;SDS011;6121;49.810;6.418;2023-08-21T03:06:56;14.80;;;6.13;;
12114;SDS011;6121;49.810;6.418;2023-08-21T03:09:22;11.17;;;4.60;;
12114;SDS011;6121;49.810;6.418;2023-08-21T03:11:48;14.10;;;6.00;;
12114;SDS011;6121;49.810;6.418;2023-08-21T03:14:15;13.13;;;5.47;;
12114;SDS011;6121;49.810;6.418;2023-08-21T03:16:41;11.37;;;4.83;;
12114;SDS011;6121;49.810;6.418;2023-08-21T03:19:06;14.30;;;5.85;;
12114;SDS011;6121;49.810;6.418;2023-08-21T03:21:32;13.63;;;5.70;;
12114;SDS011;6121;49.810;6.418;2023-08-21T03:23:59;14.90;;;6.10;;
12114;SDS011;6121;49.810;6.418;2023-08-21T03:26:25;12.50;;;5.22;;
12114;SDS011;6121;49.810;6.418;2023-08-21T03:28:53;16.08;;;6.70;;
12114;SDS011;6121;49.810;6.418;2023-08-21T03:31:19;12.82;;;5.30;;
12114;SDS011;6121;49.810;6.418;2023-08-21T03:33:44;12.63;;;5.17;;
12114;SDS011;6121;49.810;6.418;2023-08-21T03:36:12;11.70;;;5.03;;
12114;SDS011;6121;49.810;6.418;2023-08-21T03:38:38;13.52;;;5.47;;
12114;SDS011;6121;49.810;6.418;2023-08-21T03:41:03;14.52;;;6.03;;
12114;SDS011;6121;49.810;6.418;2023-08-21T03:43:32;12.75;;;5.35;;
12114;SDS011;6121;49.810;6.418;2023-08-21T03:45:58;13.48;;;5.72;;
12114;SDS011;6121;49.810;6.418;2023-08-21T03:48:24;11.95;;;5.03;;
12114;SDS011;6121;49.810;6.418;2023-08-21T03:50:50;17.00;;;7.13;;
12114;SDS011;6121;49.810;6.418;2023-08-21T03:53:17;17.02;;;7.05;;
12114;SDS011;6121;49.810;6.418;2023-08-21T03:55:43;15.30;;;6.35;;
12114;SDS011;6121;49.810;6.418;2023-08-21T03:58:09;16.20;;;6.53;;
12114;SDS011;6121;49.810;6.418;2023-08-21T04:00:35;18.73;;;7.75;;
12114;SDS011;6121;49.810;6.418;2023-08-21T04:03:00;20.77;;;8.35;;
12114;SDS011;6121;49.810;6.418;2023-08-21T04:05:27;15.30;;;6.53;;
12114;SDS011;6121;49.810;6.418;2023-08-21T04:07:53;15.65;;;6.60;;
12114;SDS011;6121;49.810;6.418;2023-08-21T04:10:18;16.80;;;7.07;;
12114;SDS011;6121;49.810;6.418;2023-08-21T04:12:44;16.75;;;6.88;;
12114;SDS011;6121;49.810;6.418;2023-08-21T04:15:10;18.17;;;7.20;;
12114;SDS011;6121;49.810;6.418;2023-08-21T04:17:36;17.92;;;7.22;;
12114;SDS011;6121;49.810;6.418;2023-08-21T04:20:02;20.08;;;8.20;;
12114;SDS011;6121;49.810;6.418;2023-08-21T04:22:28;15.03;;;6.33;;
12114;SDS011;6121;49.810;6.418;2023-08-21T04:24:54;16.88;;;7.18;;
12114;SDS011;6121;49.810;6.418;2023-08-21T04:27:20;16.75;;;7.00;;
12114;SDS011;6121;49.810;6.418;2023-08-21T04:29:45;17.33;;;7.53;;
12114;SDS011;6121;49.810;6.418;2023-08-21T04:32:11;20.95;;;8.35;;
12114;SDS011;6121;49.810;6.418;2023-08-21T04:34:38;17.00;;;7.05;;
12114;SDS011;6121;49.810;6.418;2023-08-21T04:37:04;17.73;;;7.37;;
12114;SDS011;6121;49.810;6.418;2023-08-21T04:39:31;15.70;;;6.45;;
12114;SDS011;6121;49.810;6.418;2023-08-21T04:41:57;17.35;;;7.03;;
12114;SDS011;6121;49.810;6.418;2023-08-21T04:44:23;18.45;;;7.35;;
12114;SDS011;6121;49.810;6.418;2023-08-21T04:46:49;16.45;;;6.75;;
12114;SDS011;6121;49.810;6.418;2023-08-21T04:49:16;15.32;;;6.32;;
12114;SDS011;6121;49.810;6.418;2023-08-21T04:51:42;16.25;;;6.63;;
12114;SDS011;6121;49.810;6.418;2023-08-21T04:54:08;18.45;;;7.32;;
12114;SDS011;6121;49.810;6.418;2023-08-21T04:56:33;18.23;;;7.25;;
12114;SDS011;6121;49.810;6.418;2023-08-21T04:59:00;19.05;;;7.75;;
12114;SDS011;6121;49.810;6.418;2023-08-21T05:01:28;19.60;;;7.77;;
12114;SDS011;6121;49.810;6.418;2023-08-21T05:03:56;18.23;;;7.43;;
12114;SDS011;6121;49.810;6.418;2023-08-21T05:06:22;18.05;;;7.38;;
12114;SDS011;6121;49.810;6.418;2023-08-21T05:08:49;16.58;;;6.88;;
12114;SDS011;6121;49.810;6.418;2023-08-21T05:11:15;17.00;;;6.97;;
12114;SDS011;6121;49.810;6.418;2023-08-21T05:13:42;17.73;;;7.45;;
12114;SDS011;6121;49.810;6.418;2023-08-21T05:16:09;15.13;;;6.32;;
12114;SDS011;6121;49.810;6.418;2023-08-21T05:18:37;19.53;;;7.93;;
12114;SDS011;6121;49.810;6.418;2023-08-21T05:21:03;18.33;;;7.33;;
12114;SDS011;6121;49.810;6.418;2023-08-21T05:23:30;15.98;;;6.50;;
12114;SDS011;6121;49.810;6.418;2023-08-21T05:26:01;17.02;;;7.07;;
12114;SDS011;6121;49.810;6.418;2023-08-21T05:28:26;15.27;;;6.20;;
12114;SDS011;6121;49.810;6.418;2023-08-21T05:30:52;17.55;;;7.43;;
12114;SDS011;6121;49.810;6.418;2023-08-21T05:33:19;18.42;;;7.55;;
12114;SDS011;6121;49.810;6.418;2023-08-21T05:35:48;15.68;;;6.65;;
12114;SDS011;6121;49.810;6.418;2023-08-21T05:38:13;17.05;;;6.90;;
12114;SDS011;6121;49.810;6.418;2023-08-21T05:40:42;21.60;;;8.90;;
12114;SDS011;6121;49.810;6.418;2023-08-21T05:43:09;18.35;;;7.43;;
12114;SDS011;6121;49.810;6.418;2023-08-21T05:45:37;14.93;;;6.45;;
12114;SDS011;6121;49.810;6.418;2023-08-21T05:48:04;19.15;;;7.80;;
12114;SDS011;6121;49.810;6.418;2023-08-21T05:50:30;21.13;;;8.73;;
12114;SDS011;6121;49.810;6.418;2023-08-21T05:52:55;17.95;;;7.55;;
12114;SDS011;6121;49.810;6.418;2023-08-21T05:55:23;17.67;;;7.40;;
12114;SDS011;6121;49.810;6.418;2023-08-21T05:57:49;15.17;;;6.40;;
12114;SDS011;6121;49.810;6.418;2023-08-21T06:00:17;22.88;;;9.25;;
12114;SDS011;6121;49.810;6.418;2023-08-21T06:02:43;21.03;;;8.50;;
12114;SDS011;6121;49.810;6.418;2023-08-21T06:05:15;20.55;;;8.52;;
12114;SDS011;6121;49.810;6.418;2023-08-21T06:07:43;23.10;;;9.55;;
12114;SDS011;6121;49.810;6.418;2023-08-21T06:10:09;23.85;;;9.90;;
12114;SDS011;6121;49.810;6.418;2023-08-21T06:12:40;20.20;;;8.63;;
12114;SDS011;6121;49.810;6.418;2023-08-21T06:15:07;18.20;;;7.53;;
12114;SDS011;6121;49.810;6.418;2023-08-21T06:17:37;19.20;;;8.15;;
12114;SDS011;6121;49.810;6.418;2023-08-21T06:20:04;21.20;;;9.10;;
12114;SDS011;6121;49.810;6.418;2023-08-21T06:22:31;20.63;;;8.73;;
12114;SDS011;6121;49.810;6.418;2023-08-21T06:24:57;19.48;;;8.43;;
12114;SDS011;6121;49.810;6.418;2023-08-21T06:27:23;17.85;;;7.93;;
12114;SDS011;6121;49.810;6.418;2023-08-21T06:29:49;19.83;;;8.40;;
12114;SDS011;6121;49.810;6.418;2023-08-21T06:32:14;18.98;;;8.20;;
12114;SDS011;6121;49.810;6.418;2023-08-21T06:34:40;19.23;;;8.63;;
12114;SDS011;6121;49.810;6.418;2023-08-21T06:37:06;19.90;;;8.87;;
12114;SDS011;6121;49.810;6.418;2023-08-21T06:39:34;14.95;;;6.97;;
12114;SDS011;6121;49.810;6.418;2023-08-21T06:42:00;16.85;;;7.45;;
12114;SDS011;6121;49.810;6.418;2023-08-21T06:44:32;19.08;;;8.40;;
12114;SDS011;6121;49.810;6.418;2023-08-21T06:46:58;19.03;;;8.37;;
12114;SDS011;6121;49.810;6.418;2023-08-21T06:49:24;16.45;;;7.57;;
12114;SDS011;6121;49.810;6.418;2023-08-21T06:51:50;16.77;;;7.78;;
12114;SDS011;6121;49.810;6.418;2023-08-21T06:54:16;18.67;;;8.27;;
12114;SDS011;6121;49.810;6.418;2023-08-21T06:56:43;18.55;;;8.40;;
12114;SDS011;6121;49.810;6.418;2023-08-21T06:59:09;16.25;;;7.43;;
12114;SDS011;6121;49.810;6.418;2023-08-21T07:01:35;17.00;;;7.90;;
12114;SDS011;6121;49.810;6.418;2023-08-21T07:04:01;17.57;;;7.93;;
12114;SDS011;6121;49.810;6.418;2023-08-21T07:06:27;18.38;;;8.15;;
12114;SDS011;6121;49.810;6.418;2023-08-21T07:08:54;19.60;;;8.73;;
12114;SDS011;6121;49.810;6.418;2023-08-21T07:11:20;13.63;;;6.27;;
12114;SDS011;6121;49.810;6.418;2023-08-21T07:13:46;13.65;;;6.43;;
12114;SDS011;6121;49.810;6.418;2023-08-21T07:16:12;17.00;;;7.70;;
12114;SDS011;6121;49.810;6.418;2023-08-21T07:18:38;16.27;;;7.60;;
12114;SDS011;6121;49.810;6.418;2023-08-21T07:21:04;16.10;;;7.35;;
12114;SDS011;6121;49.810;6.418;2023-08-21T07:23:30;14.32;;;6.85;;
12114;SDS011;6121;49.810;6.418;2023-08-21T07:25:57;17.55;;;8.23;;
12114;SDS011;6121;49.810;6.418;2023-08-21T07:28:23;15.02;;;7.15;;
12114;SDS011;6121;49.810;6.418;2023-08-21T07:30:59;19.98;;;9.32;;
12114;SDS011;6121;49.810;6.418;2023-08-21T07:33:25;16.70;;;7.75;;
12114;SDS011;6121;49.810;6.418;2023-08-21T07:36:01;14.20;;;6.88;;
12114;SDS011;6121;49.810;6.418;2023-08-21T07:38:28;13.48;;;6.65;;
12114;SDS011;6121;49.810;6.418;2023-08-21T07:41:04;20.13;;;9.57;;
12114;SDS011;6121;49.810;6.418;2023-08-21T07:43:33;13.52;;;6.72;;
12114;SDS011;6121;49.810;6.418;2023-08-21T07:46:03;15.13;;;7.18;;
12114;SDS011;6121;49.810;6.418;2023-08-21T07:48:29;13.73;;;6.60;;
12114;SDS011;6121;49.810;6.418;2023-08-21T07:50:55;18.38;;;9.00;;
12114;SDS011;6121;49.810;6.418;2023-08-21T07:53:21;13.10;;;6.40;;
12114;SDS011;6121;49.810;6.418;2023-08-21T07:55:48;11.52;;;5.85;;
12114;SDS011;6121;49.810;6.418;2023-08-21T07:58:14;15.00;;;7.37;;
12114;SDS011;6121;49.810;6.418;2023-08-21T08:00:40;14.73;;;7.13;;
12114;SDS011;6121;49.810;6.418;2023-08-21T08:03:07;15.45;;;7.40;;
12114;SDS011;6121;49.810;6.418;2023-08-21T08:05:34;12.00;;;6.00;;
12114;SDS011;6121;49.810;6.418;2023-08-21T08:08:00;27.10;;;12.90;;
12114;SDS011;6121;49.810;6.418;2023-08-21T08:10:26;19.60;;;9.40;;
12114;SDS011;6121;49.810;6.418;2023-08-21T08:12:53;21.42;;;10.45;;
12114;SDS011;6121;49.810;6.418;2023-08-21T08:15:20;19.67;;;9.68;;
12114;SDS011;6121;49.810;6.418;2023-08-21T08:17:46;25.80;;;12.73;;
12114;SDS011;6121;49.810;6.418;2023-08-21T08:20:12;22.87;;;11.20;;
12114;SDS011;6121;49.810;6.418;2023-08-21T08:22:41;19.92;;;10.00;;
12114;SDS011;6121;49.810;6.418;2023-08-21T08:25:07;19.45;;;9.63;;
12114;SDS011;6121;49.810;6.418;2023-08-21T08:27:34;31.80;;;14.95;;
12114;SDS011;6121;49.810;6.418;2023-08-21T08:29:59;19.85;;;10.05;;
12114;SDS011;6121;49.810;6.418;2023-08-21T08:32:26;23.57;;;11.90;;
12114;SDS011;6121;49.810;6.418;2023-08-21T08:34:52;19.20;;;9.48;;
12114;SDS011;6121;49.810;6.418;2023-08-21T08:37:18;28.23;;;13.97;;
12114;SDS011;6121;49.810;6.418;2023-08-21T08:39:46;18.83;;;9.20;;
12114;SDS011;6121;49.810;6.418;2023-08-21T08:42:12;21.20;;;10.32;;
12114;SDS011;6121;49.810;6.418;2023-08-21T08:44:40;18.58;;;9.05;;
12114;SDS011;6121;49.810;6.418;2023-08-21T08:47:07;23.13;;;11.30;;
12114;SDS011;6121;49.810;6.418;2023-08-21T08:49:34;18.10;;;9.20;;
12114;SDS011;6121;49.810;6.418;2023-08-21T08:52:00;21.02;;;10.55;;
12114;SDS011;6121;49.810;6.418;2023-08-21T08:54:26;20.23;;;10.18;;
12114;SDS011;6121;49.810;6.418;2023-08-21T08:56:53;19.03;;;9.73;;
12114;SDS011;6121;49.810;6.418;2023-08-21T08:59:28;15.95;;;8.02;;
12114;SDS011;6121;49.810;6.418;2023-08-21T09:01:55;18.15;;;9.55;;
12114;SDS011;6121;49.810;6.418;2023-08-21T09:04:21;18.17;;;9.00;;
12114;SDS011;6121;49.810;6.418;2023-08-21T09:06:47;16.60;;;8.27;;
12114;SDS011;6121;49.810;6.418;2023-08-21T09:09:12;19.73;;;10.10;;
12114;SDS011;6121;49.810;6.418;2023-08-21T09:11:42;18.73;;;9.55;;
12114;SDS011;6121;49.810;6.418;2023-08-21T09:14:09;20.85;;;10.20;;
12114;SDS011;6121;49.810;6.418;2023-08-21T09:16:35;20.10;;;10.27;;
12114;SDS011;6121;49.810;6.418;2023-08-21T09:19:01;17.30;;;8.90;;
12114;SDS011;6121;49.810;6.418;2023-08-21T09:21:27;18.98;;;9.65;;
12114;SDS011;6121;49.810;6.418;2023-08-21T09:24:00;18.13;;;9.23;;
12114;SDS011;6121;49.810;6.418;2023-08-21T09:26:29;20.67;;;10.40;;
12114;SDS011;6121;49.810;6.418;2023-08-21T09:28:58;19.00;;;9.95;;
12114;SDS011;6121;49.810;6.418;2023-08-21T09:31:30;18.80;;;9.50;;
12114;SDS011;6121;49.810;6.418;2023-08-21T09:33:58;20.90;;;10.47;;
12114;SDS011;6121;49.810;6.418;2023-08-21T09:36:26;22.23;;;11.18;;
12114;SDS011;6121;49.810;6.418;2023-08-21T09:38:54;21.77;;;11.13;;
12114;SDS011;6121;49.810;6.418;2023-08-21T09:41:20;21.40;;;10.82;;
12114;SDS011;6121;49.810;6.418;2023-08-21T09:43:47;16.98;;;8.20;;
12114;SDS011;6121;49.810;6.418;2023-08-21T09:46:17;18.67;;;9.47;;
12114;SDS011;6121;49.810;6.418;2023-08-21T09:48:48;16.13;;;8.43;;
12114;SDS011;6121;49.810;6.418;2023-08-21T09:51:16;21.13;;;11.00;;
12114;SDS011;6121;49.810;6.418;2023-08-21T09:54:01;19.73;;;10.10;;
12114;SDS011;6121;49.810;6.418;2023-08-21T09:56:28;17.73;;;8.90;;
12114;SDS011;6121;49.810;6.418;2023-08-21T09:58:55;19.20;;;9.70;;
12114;SDS011;6121;49.810;6.418;2023-08-21T10:01:21;19.42;;;10.20;;
12114;SDS011;6121;49.810;6.418;2023-08-21T10:03:47;17.17;;;8.90;;
12114;SDS011;6121;49.810;6.418;2023-08-21T10:06:15;17.83;;;9.50;;
12114;SDS011;6121;49.810;6.418;2023-08-21T10:08:45;21.35;;;11.07;;
12114;SDS011;6121;49.810;6.418;2023-08-21T10:11:13;22.15;;;11.68;;
12114;SDS011;6121;49.810;6.418;2023-08-21T10:13:39;19.17;;;10.18;;
12114;SDS011;6121;49.810;6.418;2023-08-21T10:16:05;17.73;;;9.38;;
12114;SDS011;6121;49.810;6.418;2023-08-21T10:18:33;17.48;;;9.57;;
12114;SDS011;6121;49.810;6.418;2023-08-21T10:21:10;19.65;;;10.55;;
12114;SDS011;6121;49.810;6.418;2023-08-21T10:23:37;17.23;;;9.23;;
12114;SDS011;6121;49.810;6.418;2023-08-21T10:26:05;18.02;;;9.52;;
12114;SDS011;6121;49.810;6.418;2023-08-21T10:31:38;26.53;;;11.93;;
12114;SDS011;6121;49.810;6.418;2023-08-21T10:34:05;27.38;;;11.65;;
12114;SDS011;6121;49.810;6.418;2023-08-21T10:39:25;22.92;;;9.98;;
12114;SDS011;6121;49.810;6.418;2023-08-21T10:41:56;21.92;;;9.88;;
12114;SDS011;6121;49.810;6.418;2023-08-21T10:47:13;27.20;;;12.67;;
12114;SDS011;6121;49.810;6.418;2023-08-21T10:49:40;28.07;;;12.50;;
12114;SDS011;6121;49.810;6.418;2023-08-21T10:52:07;23.52;;;10.75;;
12114;SDS011;6121;49.810;6.418;2023-08-21T10:54:47;28.25;;;12.70;;
12114;SDS011;6121;49.810;6.418;2023-08-21T10:57:14;32.10;;;14.60;;
12114;SDS011;6121;49.810;6.418;2023-08-21T11:02:16;25.17;;;11.67;;
12114;SDS011;6121;49.810;6.418;2023-08-21T11:04:42;23.63;;;10.60;;
12114;SDS011;6121;49.810;6.418;2023-08-21T11:07:09;26.80;;;11.95;;
12114;SDS011;6121;49.810;6.418;2023-08-21T11:09:36;23.42;;;10.88;;
12114;SDS011;6121;49.810;6.418;2023-08-21T11:12:08;21.02;;;9.73;;
12114;SDS011;6121;49.810;6.418;2023-08-21T11:14:38;24.60;;;10.63;;
12114;SDS011;6121;49.810;6.418;2023-08-21T11:17:05;27.33;;;11.90;;
12114;SDS011;6121;49.810;6.418;2023-08-21T11:19:32;25.70;;;11.70;;
12114;SDS011;6121;49.810;6.418;2023-08-21T11:21:59;20.90;;;9.50;;
12114;SDS011;6121;49.810;6.418;2023-08-21T11:27:05;26.85;;;11.63;;
12114;SDS011;6121;49.810;6.418;2023-08-21T11:29:42;27.10;;;12.00;;
12114;SDS011;6121;49.810;6.418;2023-08-21T11:32:12;22.57;;;10.27;;
12114;SDS011;6121;49.810;6.418;2023-08-21T11:37:20;36.55;;;16.30;;
12114;SDS011;6121;49.810;6.418;2023-08-21T11:39:48;25.00;;;10.88;;
12114;SDS011;6121;49.810;6.418;2023-08-21T11:42:15;25.10;;;10.88;;
12114;SDS011;6121;49.810;6.418;2023-08-21T11:47:18;34.72;;;15.38;;
12114;SDS011;6121;49.810;6.418;2023-08-21T11:49:46;27.08;;;12.00;;
12114;SDS011;6121;49.810;6.418;2023-08-21T11:52:14;22.88;;;10.05;;
12114;SDS011;6121;49.810;6.418;2023-08-21T11:54:48;23.25;;;10.07;;
12114;SDS011;6121;49.810;6.418;2023-08-21T11:57:14;29.30;;;12.55;;
12114;SDS011;6121;49.810;6.418;2023-08-21T11:59:40;27.58;;;12.05;;
12114;SDS011;6121;49.810;6.418;2023-08-21T12:02:21;21.73;;;9.52;;
12114;SDS011;6121;49.810;6.418;2023-08-21T12:05:04;21.45;;;9.65;;
12114;SDS011;6121;49.810;6.418;2023-08-21T12:07:34;34.67;;;15.45;;
12114;SDS011;6121;49.810;6.418;2023-08-21T12:10:00;22.08;;;9.50;;
12114;SDS011;6121;49.810;6.418;2023-08-21T12:12:26;22.63;;;9.98;;
12114;SDS011;6121;49.810;6.418;2023-08-21T12:14:55;21.55;;;9.27;;
12114;SDS011;6121;49.810;6.418;2023-08-21T12:17:20;32.63;;;14.13;;
12114;SDS011;6121;49.810;6.418;2023-08-21T12:19:46;22.57;;;10.10;;
12114;SDS011;6121;49.810;6.418;2023-08-21T12:22:12;17.50;;;7.93;;
12114;SDS011;6121;49.810;6.418;2023-08-21T12:24:38;23.95;;;10.23;;
12114;SDS011;6121;49.810;6.418;2023-08-21T12:27:04;24.27;;;10.63;;
12114;SDS011;6121;49.810;6.418;2023-08-21T12:29:31;26.02;;;11.38;;
12114;SDS011;6121;49.810;6.418;2023-08-21T12:31:57;22.35;;;9.85;;
12114;SDS011;6121;49.810;6.418;2023-08-21T12:34:23;22.63;;;10.02;;
12114;SDS011;6121;49.810;6.418;2023-08-21T12:36:50;23.23;;;10.13;;
12114;SDS011;6121;49.810;6.418;2023-08-21T12:39:16;25.42;;;10.90;;
12114;SDS011;6121;49.810;6.418;2023-08-21T12:41:43;22.52;;;9.98;;
12114;SDS011;6121;49.810;6.418;2023-08-21T12:44:09;5.43;;;2.70;;
12114;SDS011;6121;49.810;6.418;2023-08-21T12:46:38;10.68;;;5.13;;
12114;SDS011;6121;49.810;6.418;2023-08-21T12:49:04;18.02;;;7.90;;
12114;SDS011;6121;49.810;6.418;2023-08-21T12:51:30;21.40;;;9.55;;
12114;SDS011;6121;49.810;6.418;2023-08-21T12:53:56;22.00;;;9.55;;
12114;SDS011;6121;49.810;6.418;2023-08-21T12:56:22;23.42;;;10.20;;
12114;SDS011;6121;49.810;6.418;2023-08-21T12:58:48;26.70;;;11.45;;
12114;SDS011;6121;49.810;6.418;2023-08-21T13:01:14;23.17;;;10.37;;
12114;SDS011;6121;49.810;6.418;2023-08-21T13:03:45;22.20;;;9.82;;
12114;SDS011;6121;49.810;6.418;2023-08-21T13:06:12;21.35;;;9.30;;
12114;SDS011;6121;49.810;6.418;2023-08-21T13:08:38;26.48;;;11.75;;
12114;SDS011;6121;49.810;6.418;2023-08-21T13:11:04;25.20;;;11.13;;
12114;SDS011;6121;49.810;6.418;2023-08-21T13:13:31;24.27;;;10.73;;
12114;SDS011;6121;49.810;6.418;2023-08-21T13:15:57;22.50;;;9.63;;
12114;SDS011;6121;49.810;6.418;2023-08-21T13:18:23;27.70;;;12.18;;
12114;SDS011;6121;49.810;6.418;2023-08-21T13:20:49;27.77;;;12.18;;
12114;SDS011;6121;49.810;6.418;2023-08-21T13:23:15;21.75;;;9.43;;
12114;SDS011;6121;49.810;6.418;2023-08-21T13:25:41;22.35;;;9.90;;
12114;SDS011;6121;49.810;6.418;2023-08-21T13:28:07;28.63;;;12.80;;
12114;SDS011;6121;49.810;6.418;2023-08-21T13:30:33;22.80;;;9.93;;
12114;SDS011;6121;49.810;6.418;2023-08-21T13:32:58;21.43;;;9.50;;
12114;SDS011;6121;49.810;6.418;2023-08-21T13:35:24;20.83;;;9.00;;
12114;SDS011;6121;49.810;6.418;2023-08-21T13:37:50;32.25;;;14.10;;
12114;SDS011;6121;49.810;6.418;2023-08-21T13:40:16;23.15;;;10.32;;
12114;SDS011;6121;49.810;6.418;2023-08-21T13:42:47;29.13;;;12.30;;
12114;SDS011;6121;49.810;6.418;2023-08-21T13:45:14;20.33;;;8.63;;
12114;SDS011;6121;49.810;6.418;2023-08-21T13:47:43;35.95;;;15.63;;
12114;SDS011;6121;49.810;6.418;2023-08-21T13:50:11;22.30;;;9.68;;
12114;SDS011;6121;49.810;6.418;2023-08-21T13:52:37;24.33;;;10.43;;
12114;SDS011;6121;49.810;6.418;2023-08-21T13:55:05;24.73;;;10.27;;
12114;SDS011;6121;49.810;6.418;2023-08-21T13:57:31;38.22;;;16.35;;
12114;SDS011;6121;49.810;6.418;2023-08-21T14:00:01;21.02;;;9.32;;
12114;SDS011;6121;49.810;6.418;2023-08-21T14:02:32;22.52;;;9.65;;
12114;SDS011;6121;49.810;6.418;2023-08-21T14:05:02;22.08;;;9.60;;
12114;SDS011;6121;49.810;6.418;2023-08-21T14:07:31;35.30;;;15.45;;
12114;SDS011;6121;49.810;6.418;2023-08-21T14:09:57;23.30;;;10.35;;
12114;SDS011;6121;49.810;6.418;2023-08-21T14:12:23;21.90;;;9.60;;
12114;SDS011;6121;49.810;6.418;2023-08-21T14:14:49;25.05;;;10.80;;
12114;SDS011;6121;49.810;6.418;2023-08-21T14:17:15;31.48;;;13.68;;
12114;SDS011;6121;49.810;6.418;2023-08-21T14:19:41;26.23;;;11.38;;
12114;SDS011;6121;49.810;6.418;2023-08-21T14:22:07;27.00;;;11.27;;
12114;SDS011;6121;49.810;6.418;2023-08-21T14:24:33;24.33;;;10.40;;
12114;SDS011;6121;49.810;6.418;2023-08-21T14:26:59;28.63;;;11.90;;
12114;SDS011;6121;49.810;6.418;2023-08-21T14:29:25;24.17;;;10.50;;
12114;SDS011;6121;49.810;6.418;2023-08-21T14:31:50;26.52;;;11.45;;
12114;SDS011;6121;49.810;6.418;2023-08-21T14:34:19;24.50;;;10.63;;
12114;SDS011;6121;49.810;6.418;2023-08-21T14:36:48;26.05;;;11.15;;
12114;SDS011;6121;49.810;6.418;2023-08-21T14:39:14;24.90;;;10.93;;
12114;SDS011;6121;49.810;6.418;2023-08-21T14:41:43;17.20;;;7.68;;
12114;SDS011;6121;49.810;6.418;2023-08-21T14:44:09;18.13;;;8.00;;
12114;SDS011;6121;49.810;6.418;2023-08-21T14:46:36;23.05;;;9.88;;
12114;SDS011;6121;49.810;6.418;2023-08-21T14:49:02;31.35;;;13.82;;
12114;SDS011;6121;49.810;6.418;2023-08-21T14:51:28;21.07;;;9.17;;
12114;SDS011;6121;49.810;6.418;2023-08-21T14:53:54;28.38;;;12.02;;
12114;SDS011;6121;49.810;6.418;2023-08-21T14:56:20;21.43;;;9.13;;
12114;SDS011;6121;49.810;6.418;2023-08-21T14:58:46;27.67;;;11.97;;
12114;SDS011;6121;49.810;6.418;2023-08-21T15:01:13;27.77;;;11.93;;
12114;SDS011;6121;49.810;6.418;2023-08-21T15:03:39;23.20;;;9.90;;